Lothair, MT (59461)

2:06 AM MDT on August 23, 2014 (GMT -0600)
Galata School | Change Station
CLOSE
Current Station
Personal Weather Station
Location: Galata, MT
Elevation: 3130 ft
Nearby Weather Stations
Active Advisory: Areal Flood Watch Active Notice: Record Report

Elev 3130 ft 48.48 °N, 111.35 °W | Updated 2 minutes ago

Light Rain
Light Rain Mist
52.3 °F
Feels Like 52.3 °F
N
17.0
Wind Variable Wind from NE
Gusts 22.0 mph

Today
High -- | Low -- °F
--% Chance of Precip.
Yesterday
High -- | Low -- °F
Precip. -- in
6:29 AM 8:24 PM
Waning Crescent, 5% visible
Pressure 30.23 in
Visibility 3.0 miles
Clouds Overcast 600 ft
Dew Point 51 °F
Humidity 96%
Rainfall 0.00 in
Snow Depth Not available.
UV 0.0 out of 12
Pollen 2.20 out of 12
Air Quality Not available.
Flu Activity Not available.
METAR KCTB 230756Z AUTO 35018G25KT 3SM -RA BR OVC006 08/07 A3023 RMK AO2 PK WND 35026/0718 SLP236 P0002 T00780067

More Conditions Fewer Conditions

Pressure 30.23 in
Visibility 3.0 miles
Clouds Overcast 600 ft
Dew Point 51 °F
Humidity 96%
Rainfall 0.00 in
Snow Depth Not available.
UV 0.0 out of 12
Pollen 2.20 out of 12
Air Quality Not available.
Flu Activity Not available.
METAR KCTB 230756Z AUTO 35018G25KT 3SM -RA BR OVC006 08/07 A3023 RMK AO2 PK WND 35026/0718 SLP236 P0002 T00780067

More Conditions Fewer Conditions

10-Day Weather Forecast

Almanac

Astronomy

Aug. 23, 2014 Rise Set
Actual Time 6:29 AM MDT 8:24 PM MDT
Civil Twilight 5:56 AM MDT 8:57 PM MDT
Nautical Twilight 5:14 AM MDT 9:38 PM MDT
Astronomical Twilight 4:28 AM MDT 10:24 PM MDT
Moon 4:46 AM MDT 7:11 PM MDT
Length of Visible Light 15h 01m
Length of Day
13h 54m
Tomorrow will be 3m 20s shorter.
Waning Crescent, 5% of the Moon is Illuminated
Today
Waning Crescent
Aug 25
New
Sep 2
First Quarter
Sep 8
Full
Sep 15
Last Quarter

Today's Extremes

State Highs State Lows

Community

WunderPhotos

Upload Photos

1,746,386 photos uploaded!

WunderBlogs® & News

By Dr. Jeff Masters
Director of Meteorology, Weather Underground
By Kari Strenfel
Meteorologist, Weather Underground
By Christopher C. Burt
Weather Historian, Weather Underground
August 23, 2014
August 23, 2014
August 22, 2014

Nearby

Snow Depth

Station Depth Elevation
Dupuyer Creek 1 in 5750 ft
Waldron 2 in 5600 ft
Badger Pass 1 in 6900 ft
Stringer Creek 0 in 6550 ft
Onion Park 0 in 7410 ft

Earthquake Activity

City Distance Mag. Time & Date
No recent earthquake activity has been reported nearby.
Minimum magnitude displayed is 2.5.

Coastal Water Temperatures

Place Temperature
No Stations Reporting

Nearby Weather Stations